Time;durP1;ratioP1;P1;durP2;ratioP2;P2;SDS_P1;SDS_P2;PMS_P1;PMS_P2;Temp;Humidity;BMP_temperature;BMP_pressure;BME280_temperature;BME280_humidity;BME280_pressure;Samples;Min_cycle;Max_cycle;Signal;HPM_P1;HPM_P2
2023/11/12 00:00:43;;;;;;;6.63;3.17;;;5.70;81.90;;;;;;5073439;28;20191;-75
2023/11/12 00:03:08;;;;;;;4.90;3.53;;;5.70;82.20;;;;;;5063734;28;20588;-77
2023/11/12 00:05:34;;;;;;;6.73;3.17;;;5.70;82.20;;;;;;5058883;28;20640;-77
2023/11/12 00:08:01;;;;;;;4.77;3.13;;;5.80;82.10;;;;;;5077465;28;20589;-76
2023/11/12 00:10:27;;;;;;;4.80;2.63;;;5.90;81.90;;;;;;5070149;28;20698;-77
2023/11/12 00:12:52;;;;;;;4.20;2.40;;;6.00;81.50;;;;;;5069094;28;20438;-77
2023/11/12 00:15:18;;;;;;;2.73;2.33;;;6.10;81.40;;;;;;5059741;28;20218;-77
2023/11/12 00:17:44;;;;;;;6.60;2.70;;;6.20;80.90;;;;;;5068864;28;20183;-76
2023/11/12 00:20:13;;;;;;;5.13;2.40;;;6.20;80.50;;;;;;5077975;28;20226;-76
2023/11/12 00:22:43;;;;;;;3.43;2.20;;;6.20;80.50;;;;;;5060793;28;20471;-76
2023/11/12 00:25:13;;;;;;;3.53;2.77;;;6.20;80.30;;;;;;5060801;28;20550;-76
2023/11/12 00:27:39;;;;;;;4.93;2.73;;;6.30;80.30;;;;;;5057558;28;20447;-76
2023/11/12 00:30:07;;;;;;;3.87;2.30;;;6.30;80.20;;;;;;5068209;28;20491;-76
2023/11/12 00:32:32;;;;;;;4.10;2.30;;;6.30;79.90;;;;;;5067203;28;20433;-78
2023/11/12 00:34:58;;;;;;;2.80;2.13;;;6.30;79.90;;;;;;5062242;28;20492;-77
2023/11/12 00:37:24;;;;;;;4.37;2.30;;;6.20;79.90;;;;;;5062798;28;20209;-77
2023/11/12 00:39:50;;;;;;;2.37;2.00;;;6.20;80.00;;;;;;5069746;28;20454;-76
2023/11/12 00:42:15;;;;;;;3.67;2.03;;;6.20;80.00;;;;;;5071711;28;20195;-76
2023/11/12 00:44:41;;;;;;;3.97;2.00;;;6.20;80.00;;;;;;5076057;28;20306;-77
2023/11/12 00:47:07;;;;;;;3.33;1.90;;;6.30;80.00;;;;;;5055458;28;20286;-76
2023/11/12 00:49:32;;;;;;;4.80;2.10;;;6.30;80.00;;;;;;5075656;28;20190;-76
2023/11/12 00:51:58;;;;;;;3.17;1.80;;;6.30;80.00;;;;;;5071591;28;20522;-77
2023/11/12 00:54:23;;;;;;;4.30;1.97;;;6.30;80.20;;;;;;5078922;28;20204;-76
2023/11/12 00:56:49;;;;;;;2.80;1.93;;;6.30;80.20;;;;;;5060985;28;20656;-76
2023/11/12 00:59:15;;;;;;;5.63;2.20;;;6.30;80.20;;;;;;5047917;28;20624;-76
2023/11/12 01:01:40;;;;;;;2.60;1.80;;;6.30;80.30;;;;;;5060568;28;20260;-75
2023/11/12 01:04:06;;;;;;;4.60;2.20;;;6.20;80.30;;;;;;5072402;28;20212;-75
2023/11/12 01:06:33;;;;;;;3.70;2.40;;;6.20;80.50;;;;;;5078876;28;20192;-75
2023/11/12 01:08:59;;;;;;;4.63;2.07;;;6.20;80.30;;;;;;5067320;28;20261;-76
2023/11/12 01:11:24;;;;;;;1.80;1.73;;;6.20;80.50;;;;;;5058614;28;20728;-76
2023/11/12 01:13:50;;;;;;;3.67;2.13;;;6.30;80.30;;;;;;5065093;28;20235;-75
2023/11/12 01:16:16;;;;;;;2.40;1.77;;;6.30;80.20;;;;;;5072581;28;20187;-76
2023/11/12 01:18:41;;;;;;;3.13;2.07;;;6.30;80.30;;;;;;5061555;28;20284;-75
2023/11/12 01:21:08;;;;;;;2.53;1.67;;;6.30;80.20;;;;;;5066871;28;20229;-76
2023/11/12 01:23:36;;;;;;;5.00;2.20;;;6.40;80.20;;;;;;5073604;28;20477;-76
2023/11/12 01:26:01;;;;;;;4.30;2.10;;;6.40;80.20;;;;;;5074123;28;20453;-77
2023/11/12 01:28:31;;;;;;;6.90;2.40;;;6.40;80.00;;;;;;5069784;28;20430;-75
2023/11/12 01:31:00;;;;;;;4.70;2.50;;;6.40;80.00;;;;;;5067811;28;20180;-76
2023/11/12 01:33:27;;;;;;;2.50;2.10;;;6.40;80.30;;;;;;5070242;28;20533;-75
2023/11/12 01:35:56;;;;;;;5.57;2.23;;;6.40;80.30;;;;;;5054190;28;20446;-76
2023/11/12 01:38:22;;;;;;;4.27;2.20;;;6.40;80.20;;;;;;5073957;28;20930;-76
2023/11/12 01:40:47;;;;;;;3.33;1.60;;;6.40;80.00;;;;;;5072957;28;20513;-76
2023/11/12 01:43:15;;;;;;;2.83;1.90;;;6.50;79.90;;;;;;5054943;28;20212;-77
2023/11/12 01:45:40;;;;;;;2.23;1.73;;;6.40;79.60;;;;;;5055783;28;20200;-76
2023/11/12 01:48:08;;;;;;;2.03;1.80;;;6.50;79.60;;;;;;5058771;28;20438;-77
2023/11/12 01:50:34;;;;;;;3.07;1.67;;;6.50;79.30;;;;;;5065841;28;20188;-78
2023/11/12 01:53:00;;;;;;;4.13;2.00;;;6.50;79.60;;;;;;5068122;28;20434;-77
2023/11/12 01:55:28;;;;;;;3.87;2.07;;;6.50;79.60;;;;;;5056176;28;20445;-76
2023/11/12 01:57:54;;;;;;;5.40;2.33;;;6.40;79.70;;;;;;5069036;28;20442;-76
2023/11/12 02:00:22;;;;;;;2.77;1.70;;;6.50;79.70;;;;;;5063116;28;21008;-77
2023/11/12 02:02:49;;;;;;;2.10;1.60;;;6.50;79.60;;;;;;5070622;28;20955;-75
2023/11/12 02:05:15;;;;;;;2.70;2.00;;;6.50;79.30;;;;;;5062575;28;20458;-76
2023/11/12 02:07:45;;;;;;;5.80;2.10;;;6.50;79.60;;;;;;5060954;28;20422;-77
2023/11/12 02:10:13;;;;;;;4.20;1.90;;;6.50;79.20;;;;;;5058274;28;20415;-76
2023/11/12 02:12:44;;;;;;;3.33;1.60;;;6.50;79.30;;;;;;5053389;28;20438;-76
2023/11/12 02:15:10;;;;;;;3.37;1.80;;;6.50;79.20;;;;;;5069853;28;20504;-77
2023/11/12 02:17:36;;;;;;;7.50;1.80;;;6.50;79.30;;;;;;5060316;28;21009;-75
2023/11/12 02:20:10;;;;;;;3.50;1.93;;;6.50;79.20;;;;;;5072414;28;20415;-76
2023/11/12 02:22:37;;;;;;;4.40;2.03;;;6.50;79.30;;;;;;5039759;28;20207;-75
2023/11/12 02:25:06;;;;;;;5.37;2.03;;;6.60;79.30;;;;;;5061174;28;20964;-75
2023/11/12 02:27:32;;;;;;;4.87;1.93;;;6.60;78.90;;;;;;5063550;28;20430;-75
2023/11/12 02:29:57;;;;;;;3.47;1.57;;;6.70;78.60;;;;;;5070962;28;20426;-76
2023/11/12 02:32:31;;;;;;;1.70;1.40;;;6.80;78.10;;;;;;5068570;28;20524;-77
2023/11/12 02:34:57;;;;;;;2.20;1.40;;;6.80;78.10;;;;;;5058345;28;20223;-77
2023/11/12 02:37:24;;;;;;;2.03;1.40;;;6.90;77.60;;;;;;5052706;28;20411;-75
2023/11/12 02:39:49;;;;;;;2.50;1.50;;;6.90;77.60;;;;;;5069755;28;20450;-76
2023/11/12 02:42:16;;;;;;;2.30;1.60;;;6.90;77.70;;;;;;5072119;28;20437;-76
2023/11/12 02:44:43;;;;;;;3.80;1.40;;;6.90;77.60;;;;;;5071637;28;20196;-75
2023/11/12 02:47:08;;;;;;;3.70;1.40;;;6.90;77.40;;;;;;5057169;28;20913;-77
2023/11/12 02:50:22;;;;;;;4.70;1.60;;;6.90;77.60;;;;;;5071551;28;20529;-75
2023/11/12 02:52:49;;;;;;;2.63;1.47;;;6.90;77.70;;;;;;5070230;28;22302;-76
2023/11/12 02:55:16;;;;;;;2.40;1.13;;;6.90;77.70;;;;;;5071418;28;20829;-77
2023/11/12 02:57:46;;;;;;;2.93;1.50;;;6.80;77.70;;;;;;5064451;28;21021;-75
2023/11/12 03:00:14;;;;;;;4.17;1.90;;;6.80;78.00;;;;;;5075904;28;20513;-76
2023/11/12 03:02:39;;;;;;;6.03;1.50;;;6.90;78.40;;;;;;5073907;28;20484;-75
2023/11/12 03:05:07;;;;;;;2.57;1.60;;;6.80;78.40;;;;;;5070075;28;20454;-77
2023/11/12 03:07:32;;;;;;;2.63;1.67;;;6.90;78.40;;;;;;5058498;28;20230;-76
2023/11/12 03:09:58;;;;;;;4.00;2.10;;;6.80;78.30;;;;;;5072015;28;20480;-76
2023/11/12 03:12:23;;;;;;;6.97;2.00;;;6.80;78.30;;;;;;5068372;28;20180;-76
2023/11/12 03:14:49;;;;;;;2.77;1.57;;;6.80;78.40;;;;;;5064154;28;20609;-76
2023/11/12 03:17:15;;;;;;;8.27;2.10;;;6.70;78.60;;;;;;5055390;28;20329;-77
2023/11/12 03:19:41;;;;;;;2.40;1.93;;;6.70;79.00;;;;;;5062128;28;20242;-75
2023/11/12 03:22:08;;;;;;;4.70;2.27;;;6.70;79.00;;;;;;5067355;28;20188;-77
2023/11/12 03:24:35;;;;;;;2.60;1.80;;;6.60;79.20;;;;;;5065616;28;21050;-76
2023/11/12 03:27:00;;;;;;;3.20;1.73;;;6.40;79.70;;;;;;5052374;28;20415;-78
2023/11/12 03:29:26;;;;;;;6.33;1.93;;;6.40;80.20;;;;;;5064350;28;20442;-76
2023/11/12 03:31:55;;;;;;;2.60;1.73;;;6.30;80.30;;;;;;5054601;28;20274;-75
2023/11/12 03:34:22;;;;;;;3.30;1.70;;;6.20;80.80;;;;;;5046606;28;20603;-76
2023/11/12 03:36:49;;;;;;;1.87;1.20;;;6.10;80.90;;;;;;5061621;28;20809;-76
2023/11/12 03:39:14;;;;;;;3.03;1.30;;;6.00;81.10;;;;;;5065565;28;20453;-75
2023/11/12 03:41:40;;;;;;;6.30;1.40;;;5.80;81.20;;;;;;5057500;28;20433;-76
2023/11/12 03:44:05;;;;;;;2.03;1.50;;;5.70;81.50;;;;;;5070083;28;20230;-76
2023/11/12 03:46:31;;;;;;;4.00;1.80;;;5.70;81.90;;;;;;5066666;28;20182;-76
2023/11/12 03:48:57;;;;;;;3.00;1.87;;;5.70;82.50;;;;;;5062705;28;20258;-76
2023/11/12 03:51:23;;;;;;;2.80;1.60;;;5.60;82.80;;;;;;5055032;28;20185;-76
2023/11/12 03:53:48;;;;;;;2.40;1.90;;;5.50;83.00;;;;;;5066051;28;20230;-77
2023/11/12 03:56:14;;;;;;;3.40;2.00;;;5.50;83.30;;;;;;5069961;28;20806;-76
2023/11/12 03:58:39;;;;;;;2.63;1.50;;;5.40;83.30;;;;;;5072168;28;20637;-76
2023/11/12 04:01:05;;;;;;;4.73;1.60;;;5.40;83.40;;;;;;5070232;28;20188;-76
2023/11/12 04:03:31;;;;;;;3.20;1.90;;;5.30;83.40;;;;;;5065460;28;20216;-75
2023/11/12 04:05:56;;;;;;;3.93;1.80;;;5.40;83.80;;;;;;5071201;28;20252;-77
2023/11/12 04:08:22;;;;;;;2.07;1.67;;;5.40;83.60;;;;;;5059635;28;20180;-76
2023/11/12 04:10:47;;;;;;;2.90;1.77;;;5.30;83.60;;;;;;5071376;28;20198;-76
2023/11/12 04:13:13;;;;;;;3.27;2.10;;;5.30;83.70;;;;;;5065268;28;20192;-76
2023/11/12 04:15:39;;;;;;;2.40;1.60;;;5.30;84.00;;;;;;5051044;28;20198;-76
2023/11/12 04:18:05;;;;;;;2.40;1.60;;;5.30;83.80;;;;;;5057307;28;20675;-75
2023/11/12 04:20:32;;;;;;;3.47;1.63;;;5.30;83.80;;;;;;5066937;28;20215;-76
2023/11/12 04:22:58;;;;;;;2.80;1.77;;;5.40;83.70;;;;;;5067472;28;20473;-78
2023/11/12 04:25:24;;;;;;;3.63;1.80;;;5.30;83.70;;;;;;5058338;28;20572;-76
2023/11/12 04:27:50;;;;;;;1.80;1.57;;;5.30;83.80;;;;;;5072464;28;20505;-76
2023/11/12 04:30:17;;;;;;;2.73;1.60;;;5.30;83.80;;;;;;5058996;28;20430;-76
2023/11/12 04:32:44;;;;;;;3.43;2.00;;;5.30;84.00;;;;;;5057170;28;20426;-76
2023/11/12 04:35:13;;;;;;;5.30;2.07;;;5.20;84.00;;;;;;5056130;28;20443;-77
2023/11/12 04:37:39;;;;;;;3.13;1.77;;;5.20;84.10;;;;;;5059013;28;20431;-76
2023/11/12 04:40:06;;;;;;;4.97;2.30;;;5.20;84.10;;;;;;5050597;28;20447;-76
2023/11/12 04:42:32;;;;;;;3.93;2.07;;;5.20;84.10;;;;;;5052053;28;20477;-76
2023/11/12 04:44:58;;;;;;;3.93;2.10;;;5.20;84.10;;;;;;5051489;28;20779;-77
2023/11/12 04:47:24;;;;;;;3.10;1.87;;;5.10;84.10;;;;;;5051080;28;20430;-76
2023/11/12 04:49:51;;;;;;;2.67;1.73;;;5.10;84.30;;;;;;5052074;28;20195;-76
2023/11/12 04:52:17;;;;;;;4.37;1.80;;;5.10;84.40;;;;;;5054682;28;20762;-76
2023/11/12 04:54:47;;;;;;;2.10;1.60;;;5.10;84.40;;;;;;5065823;28;20439;-76
2023/11/12 04:57:13;;;;;;;5.07;1.87;;;5.10;84.40;;;;;;5057945;28;20418;-75
2023/11/12 04:59:40;;;;;;;2.20;1.60;;;5.10;84.40;;;;;;5056878;28;20951;-77
2023/11/12 05:02:06;;;;;;;3.27;1.70;;;5.10;84.30;;;;;;5057010;28;20419;-75
2023/11/12 05:04:32;;;;;;;2.80;1.80;;;5.20;84.30;;;;;;5054391;28;20481;-76
2023/11/12 05:06:58;;;;;;;2.60;1.80;;;5.10;84.00;;;;;;5054547;28;20185;-75
2023/11/12 05:09:23;;;;;;;6.17;2.57;;;5.10;84.30;;;;;;5053859;28;20415;-75
2023/11/12 05:11:49;;;;;;;2.73;2.00;;;5.10;84.00;;;;;;5054721;28;20180;-77
2023/11/12 05:14:15;;;;;;;3.40;1.67;;;5.10;84.00;;;;;;5060040;28;20249;-76
2023/11/12 05:16:43;;;;;;;4.33;1.83;;;5.10;84.00;;;;;;5063207;28;20480;-76
2023/11/12 05:19:09;;;;;;;1.93;1.80;;;5.00;84.10;;;;;;5055754;28;20298;-75
2023/11/12 05:21:35;;;;;;;3.10;2.00;;;4.90;84.10;;;;;;5073236;28;20787;-76
2023/11/12 05:24:00;;;;;;;3.63;2.30;;;4.90;84.40;;;;;;5073453;28;20493;-77
2023/11/12 05:26:26;;;;;;;5.47;2.13;;;4.80;84.70;;;;;;5077142;28;20184;-77
2023/11/12 05:28:51;;;;;;;3.37;2.03;;;4.80;84.90;;;;;;5070499;28;20622;-76
2023/11/12 05:31:17;;;;;;;7.60;2.70;;;4.90;84.90;;;;;;5055725;28;20185;-76
2023/11/12 05:33:43;;;;;;;4.40;2.50;;;4.80;84.90;;;;;;5054714;28;20279;-77
2023/11/12 05:36:09;;;;;;;3.07;2.23;;;4.80;84.90;;;;;;5054377;28;20652;-75
2023/11/12 05:38:34;;;;;;;3.03;2.10;;;4.80;85.00;;;;;;5054468;28;20657;-76
2023/11/12 05:41:00;;;;;;;4.97;2.17;;;4.80;85.00;;;;;;5053931;28;20208;-76
2023/11/12 05:43:26;;;;;;;16.20;7.17;;;4.70;84.90;;;;;;5053551;28;20239;-76
2023/11/12 05:45:52;;;;;;;8.70;4.57;;;4.70;85.00;;;;;;5054258;28;20422;-76
2023/11/12 05:48:17;;;;;;;5.80;2.87;;;4.70;85.00;;;;;;5053908;28;20506;-76
2023/11/12 05:50:43;;;;;;;4.63;3.03;;;4.70;85.20;;;;;;5053119;28;20664;-76
2023/11/12 05:53:09;;;;;;;5.53;3.30;;;4.60;85.20;;;;;;5053439;28;20191;-76
2023/11/12 05:55:34;;;;;;;4.43;2.97;;;4.60;85.20;;;;;;5066172;28;20441;-76
2023/11/12 05:58:00;;;;;;;6.80;3.20;;;4.60;85.20;;;;;;5068029;28;20185;-77
2023/11/12 06:00:25;;;;;;;4.13;2.77;;;4.60;85.30;;;;;;5053096;28;20184;-75
2023/11/12 06:02:51;;;;;;;10.73;3.37;;;4.60;85.30;;;;;;5052532;28;20208;-76
2023/11/12 06:05:17;;;;;;;4.90;3.20;;;4.60;85.30;;;;;;5053487;28;20212;-76
2023/11/12 06:07:42;;;;;;;3.93;2.80;;;4.60;85.30;;;;;;5035413;28;20191;-75
2023/11/12 06:10:09;;;;;;;4.23;3.20;;;4.50;85.30;;;;;;5052636;28;20223;-76
2023/11/12 06:12:34;;;;;;;5.70;3.27;;;4.50;85.30;;;;;;5052874;28;20197;-76
2023/11/12 06:15:00;;;;;;;5.93;3.43;;;4.50;85.30;;;;;;5053383;28;20467;-75
2023/11/12 06:17:26;;;;;;;4.00;2.90;;;4.50;85.50;;;;;;5055405;28;20188;-75
2023/11/12 06:19:51;;;;;;;5.83;2.70;;;4.50;85.60;;;;;;5053639;28;20234;-75
2023/11/12 06:22:18;;;;;;;3.37;2.80;;;4.60;85.70;;;;;;5066152;28;20418;-76
2023/11/12 06:24:43;;;;;;;7.30;3.70;;;4.60;85.70;;;;;;5052713;28;20893;-76
2023/11/12 06:27:09;;;;;;;4.00;3.00;;;4.70;85.70;;;;;;5053690;28;20517;-77
2023/11/12 06:29:38;;;;;;;4.97;3.13;;;4.80;85.70;;;;;;5065019;28;20196;-77
2023/11/12 06:32:04;;;;;;;4.50;2.43;;;4.80;85.50;;;;;;5056646;28;20188;-75
2023/11/12 06:34:30;;;;;;;4.33;2.57;;;4.80;85.00;;;;;;5052979;28;20534;-75
2023/11/12 06:36:56;;;;;;;5.10;2.63;;;4.80;84.10;;;;;;5067307;28;20507;-76
2023/11/12 06:39:21;;;;;;;5.30;2.57;;;4.70;84.10;;;;;;5052474;28;20445;-77
2023/11/12 06:41:47;;;;;;;6.80;3.43;;;4.70;84.10;;;;;;5054284;28;20263;-76
2023/11/12 06:44:13;;;;;;;5.60;2.87;;;4.70;83.80;;;;;;5052961;28;20273;-76
2023/11/12 06:46:47;;;;;;;4.97;2.60;;;4.60;84.00;;;;;;5035644;28;20662;-76
2023/11/12 06:49:13;;;;;;;4.10;2.70;;;4.70;84.10;;;;;;5053842;28;20457;-76
2023/11/12 06:51:38;;;;;;;12.60;3.87;;;4.70;83.80;;;;;;5036144;28;20423;-76
2023/11/12 06:54:04;;;;;;;5.20;2.77;;;4.70;83.80;;;;;;5036166;28;20470;-77
2023/11/12 06:56:36;;;;;;;6.63;3.23;;;4.80;83.80;;;;;;5068057;28;20189;-76
2023/11/12 06:59:02;;;;;;;5.67;3.00;;;4.80;83.70;;;;;;5054682;28;20716;-76
2023/11/12 07:01:28;;;;;;;4.57;2.73;;;4.80;83.40;;;;;;5052637;28;20480;-78
2023/11/12 07:03:54;;;;;;;4.83;2.57;;;4.80;83.30;;;;;;5051545;28;20500;-76
2023/11/12 07:06:20;;;;;;;6.20;3.47;;;4.80;83.30;;;;;;5052319;28;20423;-76
2023/11/12 07:08:45;;;;;;;4.20;2.63;;;4.80;83.40;;;;;;5051738;28;20219;-77
2023/11/12 07:11:11;;;;;;;5.50;3.20;;;4.80;83.40;;;;;;5052183;28;20580;-77
2023/11/12 07:13:37;;;;;;;7.70;3.13;;;4.80;83.40;;;;;;5051595;28;20277;-76
2023/11/12 07:16:04;;;;;;;6.83;3.77;;;4.80;83.30;;;;;;5068912;28;20184;-75
2023/11/12 07:18:30;;;;;;;4.23;2.77;;;4.80;83.10;;;;;;5052098;28;20280;-76
2023/11/12 07:20:55;;;;;;;5.27;2.77;;;4.80;83.30;;;;;;5056499;28;20505;-76
2023/11/12 07:23:21;;;;;;;6.87;3.47;;;4.90;83.40;;;;;;5060475;28;20357;-77
2023/11/12 07:25:47;;;;;;;5.57;3.57;;;5.00;83.10;;;;;;5051730;28;20219;-76
2023/11/12 07:28:14;;;;;;;6.63;3.60;;;5.00;83.10;;;;;;5059822;28;20604;-77
2023/11/12 07:30:39;;;;;;;5.93;3.50;;;5.00;83.10;;;;;;5054050;28;20185;-77
2023/11/12 07:33:08;;;;;;;9.67;3.93;;;5.10;83.10;;;;;;5053581;28;20429;-76
2023/11/12 07:35:34;;;;;;;6.33;3.93;;;5.10;83.10;;;;;;5053235;28;20236;-76
2023/11/12 07:38:00;;;;;;;7.20;3.30;;;5.10;82.80;;;;;;5052451;28;20427;-76
2023/11/12 07:40:26;;;;;;;4.83;3.03;;;5.20;82.80;;;;;;5052796;28;20619;-76
2023/11/12 07:42:52;;;;;;;7.20;3.30;;;5.30;82.70;;;;;;5053856;28;20506;-77
2023/11/12 07:45:19;;;;;;;5.40;3.30;;;5.40;82.50;;;;;;5053998;28;20227;-77
2023/11/12 07:47:45;;;;;;;6.20;3.43;;;5.50;82.70;;;;;;5053482;28;20419;-76
2023/11/12 07:50:11;;;;;;;7.13;3.60;;;5.50;82.50;;;;;;5034942;28;20462;-76
2023/11/12 07:52:37;;;;;;;5.60;3.23;;;5.60;82.50;;;;;;5056672;28;20454;-76
2023/11/12 07:55:05;;;;;;;5.43;3.80;;;5.70;82.20;;;;;;5059984;28;20450;-75
2023/11/12 07:57:32;;;;;;;8.43;3.60;;;5.80;81.50;;;;;;5055167;28;20192;-75
2023/11/12 07:59:58;;;;;;;4.40;2.90;;;5.90;81.10;;;;;;5037977;28;20521;-76
2023/11/12 08:02:24;;;;;;;6.57;3.60;;;5.80;80.30;;;;;;5071753;28;20448;-77
2023/11/12 08:04:49;;;;;;;7.00;3.10;;;5.70;80.20;;;;;;5052350;28;20513;-76
2023/11/12 08:07:15;;;;;;;8.10;3.70;;;5.70;80.60;;;;;;5051487;28;20192;-76
2023/11/12 08:09:46;;;;;;;6.77;3.90;;;5.60;80.60;;;;;;5052648;28;20267;-77
2023/11/12 08:12:13;;;;;;;7.10;3.83;;;5.50;81.20;;;;;;5052162;28;20184;-75
2023/11/12 08:14:40;;;;;;;6.33;3.60;;;5.40;81.40;;;;;;5051758;28;20447;-77
2023/11/12 08:17:06;;;;;;;4.83;3.23;;;5.60;81.50;;;;;;5052840;28;20425;-76
2023/11/12 08:19:32;;;;;;;6.70;3.87;;;5.70;81.20;;;;;;5051741;28;20519;-75
2023/11/12 08:21:59;;;;;;;6.33;3.53;;;5.70;81.10;;;;;;5047850;28;20766;-77
2023/11/12 08:24:25;;;;;;;6.40;3.83;;;5.80;81.20;;;;;;5066028;28;20457;-75
2023/11/12 08:26:50;;;;;;;5.87;3.40;;;5.90;81.40;;;;;;5061057;28;20448;-75
2023/11/12 08:29:16;;;;;;;6.80;3.63;;;6.10;81.20;;;;;;5073317;28;20431;-76
2023/11/12 08:31:43;;;;;;;5.23;3.53;;;6.20;80.50;;;;;;5063817;28;20196;-76
2023/11/12 08:34:08;;;;;;;9.10;3.57;;;6.30;79.60;;;;;;5055970;28;20525;-76
2023/11/12 08:36:34;;;;;;;6.30;3.97;;;6.40;79.20;;;;;;5057171;28;20834;-77
2023/11/12 08:39:03;;;;;;;6.93;3.87;;;6.50;78.70;;;;;;5075847;28;20595;-76
2023/11/12 08:41:29;;;;;;;6.77;3.70;;;6.60;78.30;;;;;;5063629;28;20593;-77
2023/11/12 08:43:55;;;;;;;6.17;3.93;;;6.70;78.10;;;;;;5061744;28;20640;-76
2023/11/12 08:46:23;;;;;;;6.50;3.53;;;6.70;78.10;;;;;;5075633;28;20191;-76
2023/11/12 08:48:48;;;;;;;6.33;4.27;;;6.80;78.00;;;;;;5070095;28;20431;-75
2023/11/12 08:51:14;;;;;;;7.00;4.23;;;6.80;78.10;;;;;;5057379;28;20529;-75
2023/11/12 08:53:40;;;;;;;5.90;3.87;;;6.80;78.00;;;;;;5058501;28;20611;-77
2023/11/12 08:56:07;;;;;;;7.00;3.67;;;6.90;77.40;;;;;;5061049;28;20496;-76
2023/11/12 08:58:34;;;;;;;5.60;3.70;;;6.90;77.30;;;;;;5038097;28;20769;-77
2023/11/12 09:01:02;;;;;;;4.03;3.40;;;7.00;76.80;;;;;;5056159;28;20883;-76
2023/11/12 09:03:28;;;;;;;4.90;3.20;;;6.90;76.50;;;;;;5054791;28;20533;-77
2023/11/12 09:05:54;;;;;;;4.13;3.10;;;6.80;77.10;;;;;;5056190;28;20419;-76
2023/11/12 09:08:21;;;;;;;5.00;3.23;;;6.80;77.30;;;;;;5062753;28;20214;-77
2023/11/12 09:10:47;;;;;;;9.50;4.23;;;6.90;77.30;;;;;;5058699;28;20195;-77
2023/11/12 09:13:13;;;;;;;4.43;2.93;;;7.00;77.00;;;;;;5055821;28;20423;-77
2023/11/12 09:15:39;;;;;;;6.27;3.13;;;7.00;76.70;;;;;;5055635;28;20180;-77
2023/11/12 09:18:05;;;;;;;8.43;3.50;;;7.10;76.40;;;;;;5055348;28;20212;-76
2023/11/12 09:20:31;;;;;;;4.70;3.63;;;6.90;75.90;;;;;;5056088;28;20419;-76
2023/11/12 09:22:56;;;;;;;13.60;3.50;;;6.80;76.20;;;;;;5066648;28;20471;-77
2023/11/12 09:25:22;;;;;;;5.77;3.97;;;6.90;76.70;;;;;;5054293;28;20220;-77
2023/11/12 09:27:47;;;;;;;5.27;3.13;;;6.90;76.50;;;;;;5058735;28;20180;-77
2023/11/12 09:30:13;;;;;;;5.70;3.67;;;7.00;76.70;;;;;;5059880;28;20184;-77
2023/11/12 09:32:41;;;;;;;6.27;3.47;;;7.00;76.80;;;;;;5054157;28;20184;-76
2023/11/12 09:35:09;;;;;;;5.60;3.43;;;7.10;76.70;;;;;;5049724;28;20958;-76
2023/11/12 09:37:34;;;;;;;8.90;3.63;;;7.20;76.70;;;;;;5053897;28;20419;-77
2023/11/12 09:40:00;;;;;;;8.97;3.50;;;7.20;76.40;;;;;;5055546;28;20803;-76
2023/11/12 09:42:28;;;;;;;4.40;3.23;;;7.10;76.20;;;;;;5056354;28;20602;-77
2023/11/12 09:45:01;;;;;;;5.87;3.43;;;7.20;76.50;;;;;;5054872;28;20536;-76
2023/11/12 09:47:35;;;;;;;6.30;3.50;;;7.40;76.10;;;;;;5058006;28;20797;-76
2023/11/12 09:50:04;;;;;;;4.40;3.13;;;7.50;75.80;;;;;;5055065;28;20438;-77
2023/11/12 09:52:30;;;;;;;4.30;3.07;;;7.60;74.80;;;;;;5054699;28;20411;-79
2023/11/12 09:54:58;;;;;;;4.60;2.93;;;7.70;73.90;;;;;;5036394;28;20466;-76
2023/11/12 09:57:24;;;;;;;6.50;2.80;;;7.60;73.90;;;;;;5055797;28;20792;-77
2023/11/12 09:59:51;;;;;;;5.70;2.70;;;7.60;73.90;;;;;;5075567;28;20433;-77
2023/11/12 10:02:19;;;;;;;6.23;3.23;;;7.70;74.00;;;;;;5058358;28;20242;-76
2023/11/12 10:04:57;;;;;;;4.20;2.87;;;7.80;73.70;;;;;;5054389;28;20882;-77
2023/11/12 10:07:24;;;;;;;6.40;3.30;;;8.00;73.30;;;;;;5067105;28;20406;-76
2023/11/12 10:09:49;;;;;;;4.57;2.83;;;8.00;72.90;;;;;;5069377;28;20423;-77
2023/11/12 10:12:15;;;;;;;6.10;3.20;;;8.10;72.90;;;;;;5056521;28;21005;-76
2023/11/12 10:14:42;;;;;;;6.60;3.47;;;8.00;72.00;;;;;;5057501;28;20219;-77
2023/11/12 10:17:10;;;;;;;3.97;3.00;;;8.00;72.60;;;;;;5039506;28;20185;-78
2023/11/12 10:19:37;;;;;;;7.23;3.60;;;7.90;72.60;;;;;;5075744;28;20430;-77
2023/11/12 10:22:06;;;;;;;5.23;4.10;;;7.80;72.90;;;;;;5078006;28;20467;-77
2023/11/12 10:24:43;;;;;;;6.30;3.50;;;7.90;73.00;;;;;;5057086;28;20508;-76
2023/11/12 10:27:12;;;;;;;7.70;3.40;;;8.10;72.70;;;;;;5054364;28;20422;-77
2023/11/12 10:29:39;;;;;;;3.80;2.50;;;8.20;72.10;;;;;;5063884;28;20438;-77
2023/11/12 10:32:07;;;;;;;3.77;3.00;;;8.20;72.00;;;;;;5067546;28;20429;-76
2023/11/12 10:34:33;;;;;;;5.73;3.17;;;8.20;71.80;;;;;;5053436;28;20447;-76
2023/11/12 10:37:07;;;;;;;3.80;2.83;;;8.40;71.80;;;;;;5054882;28;20474;-76
2023/11/12 10:39:40;;;;;;;6.63;3.33;;;8.30;71.70;;;;;;5060168;28;20443;-76
2023/11/12 10:42:20;;;;;;;7.20;3.00;;;8.40;71.70;;;;;;5064061;28;20423;-76
2023/11/12 10:44:48;;;;;;;4.97;3.37;;;8.50;71.80;;;;;;5054434;28;20490;-76
2023/11/12 10:47:16;;;;;;;4.13;2.80;;;8.40;71.60;;;;;;5053969;28;20427;-75
2023/11/12 10:49:45;;;;;;;5.77;3.37;;;8.40;71.80;;;;;;5053476;28;20530;-76
2023/11/12 10:52:12;;;;;;;6.10;3.83;;;8.60;71.30;;;;;;5057147;28;20518;-76
2023/11/12 10:54:39;;;;;;;5.60;3.30;;;8.60;70.80;;;;;;5059507;28;20439;-76
2023/11/12 10:57:05;;;;;;;5.50;3.07;;;8.70;70.80;;;;;;5068253;28;20429;-76
2023/11/12 10:59:34;;;;;;;3.33;2.70;;;8.70;70.80;;;;;;5078540;28;20802;-76
2023/11/12 11:02:01;;;;;;;7.80;3.70;;;8.70;70.50;;;;;;5042585;28;20512;-76
2023/11/12 11:04:26;;;;;;;9.07;3.43;;;8.40;70.40;;;;;;5069857;28;20470;-77
2023/11/12 11:06:52;;;;;;;5.27;3.37;;;8.10;71.70;;;;;;5066469;28;20438;-77
2023/11/12 11:09:20;;;;;;;6.23;3.30;;;7.80;72.90;;;;;;5054855;28;20199;-77
2023/11/12 11:11:49;;;;;;;7.23;3.33;;;7.80;73.50;;;;;;5054501;28;20214;-76
2023/11/12 11:14:24;;;;;;;5.20;3.10;;;7.80;73.60;;;;;;5052892;28;20514;-76
2023/11/12 11:16:52;;;;;;;11.63;3.63;;;7.80;73.60;;;;;;5053482;28;20479;-79
2023/11/12 11:19:18;;;;;;;5.90;3.40;;;7.70;73.60;;;;;;5055786;28;20924;-76
2023/11/12 11:22:21;;;;;;;4.67;3.20;;;7.70;74.20;;;;;;5072898;28;20415;-77
2023/11/12 11:24:47;;;;;;;4.60;3.30;;;7.80;74.00;;;;;;5068429;28;21058;-74
2023/11/12 11:27:12;;;;;;;6.10;2.90;;;7.80;73.70;;;;;;5057985;28;20529;-75
2023/11/12 11:30:15;;;;;;;3.53;2.57;;;7.80;73.90;;;;;;5074360;28;20210;-75
2023/11/12 11:32:57;;;;;;;4.40;2.80;;;7.80;73.90;;;;;;5067007;28;20199;-76
2023/11/12 11:35:24;;;;;;;8.50;3.60;;;7.80;74.20;;;;;;5035931;28;20454;-77
2023/11/12 11:38:11;;;;;;;5.60;3.30;;;8.00;74.50;;;;;;5054788;28;20534;-74
2023/11/12 11:40:44;;;;;;;4.17;2.90;;;8.20;74.00;;;;;;5052439;28;20510;-75
2023/11/12 11:43:25;;;;;;;6.30;2.67;;;8.20;72.60;;;;;;5052917;28;20995;-77
2023/11/12 11:46:07;;;;;;;5.07;2.57;;;8.40;72.60;;;;;;5052633;28;20520;-77
2023/11/12 11:48:33;;;;;;;6.63;3.00;;;8.50;72.00;;;;;;5052233;28;20422;-76
2023/11/12 11:50:58;;;;;;;4.17;2.63;;;8.60;71.70;;;;;;5052255;28;20431;-78
2023/11/12 11:53:28;;;;;;;5.93;2.90;;;8.50;71.60;;;;;;5071011;28;20276;-76
2023/11/12 11:56:03;;;;;;;6.90;3.37;;;8.50;71.40;;;;;;5073834;28;20172;-76
2023/11/12 11:58:43;;;;;;;4.37;2.60;;;8.60;71.60;;;;;;5075663;28;20460;-76
2023/11/12 12:01:08;;;;;;;3.80;2.90;;;8.60;71.60;;;;;;5059788;28;20518;-78
2023/11/12 12:03:34;;;;;;;4.87;3.37;;;8.50;71.60;;;;;;5057768;28;20474;-76
2023/11/12 12:06:00;;;;;;;10.60;3.27;;;8.50;71.80;;;;;;5035308;28;20838;-78
2023/11/12 12:08:25;;;;;;;8.30;2.97;;;8.50;72.00;;;;;;5052203;28;20187;-77
2023/11/12 12:10:51;;;;;;;4.13;3.00;;;8.40;71.70;;;;;;5051963;28;20200;-76
2023/11/12 12:13:17;;;;;;;5.00;2.67;;;8.40;72.00;;;;;;5051337;28;20696;-77
2023/11/12 12:15:46;;;;;;;6.07;3.00;;;8.20;72.60;;;;;;5051586;28;20655;-77
2023/11/12 12:18:23;;;;;;;6.07;3.47;;;8.20;72.90;;;;;;5033768;28;20427;-76
2023/11/12 12:20:51;;;;;;;5.90;3.50;;;8.20;72.90;;;;;;5055994;28;20844;-78
2023/11/12 12:23:17;;;;;;;7.23;3.37;;;8.30;73.00;;;;;;5061424;28;20513;-75
2023/11/12 12:25:51;;;;;;;6.63;3.10;;;8.40;72.60;;;;;;5051920;28;20876;-76
2023/11/12 12:28:20;;;;;;;4.53;2.90;;;8.30;72.40;;;;;;5060298;28;20421;-75
2023/11/12 12:30:54;;;;;;;4.90;3.17;;;8.30;72.70;;;;;;5056226;28;20412;-77
2023/11/12 12:33:22;;;;;;;6.03;3.50;;;8.40;72.40;;;;;;5070040;28;20441;-77
2023/11/12 12:35:49;;;;;;;6.70;3.33;;;8.30;72.60;;;;;;5070060;28;20434;-76
2023/11/12 12:38:15;;;;;;;6.47;3.77;;;8.30;72.90;;;;;;5055616;28;20451;-77
2023/11/12 12:40:41;;;;;;;4.90;2.90;;;8.40;72.70;;;;;;5056585;28;20434;-76
2023/11/12 12:43:10;;;;;;;7.57;3.50;;;8.50;73.20;;;;;;5055287;28;20467;-77
2023/11/12 12:45:36;;;;;;;5.27;3.43;;;8.60;72.00;;;;;;5038846;28;20230;-77
2023/11/12 12:48:11;;;;;;;5.37;3.23;;;8.50;72.30;;;;;;5059272;28;20431;-77
2023/11/12 12:50:39;;;;;;;3.87;2.80;;;8.60;72.00;;;;;;5068333;28;20425;-79
2023/11/12 12:53:17;;;;;;;4.17;2.60;;;8.70;72.00;;;;;;5073287;28;20442;-77
2023/11/12 12:55:44;;;;;;;4.30;3.30;;;8.80;71.80;;;;;;5061520;28;20414;-77
2023/11/12 12:58:11;;;;;;;5.63;3.13;;;8.80;71.40;;;;;;5037459;28;20525;-79